Time;durP1;ratioP1;P1;durP2;ratioP2;P2;SDS_P1;SDS_P2;PMS_P1;PMS_P2;Temp;Humidity;BMP_temperature;BMP_pressure;BME280_temperature;BME280_humidity;BME280_pressure;Samples;Min_cycle;Max_cycle;Signal;HPM_P1;HPM_P2
2023/12/29 00:01:32;;;;;;;5.93;2.03;;;7.40;25.10;;;;;;5021313;28;46444;-78
2023/12/29 00:03:58;;;;;;;3.97;1.93;;;7.50;25.20;;;;;;5019702;28;46711;-78
2023/12/29 00:06:23;;;;;;;3.37;2.17;;;7.40;25.10;;;;;;5037219;28;47137;-78
2023/12/29 00:08:49;;;;;;;3.60;2.33;;;7.30;25.10;;;;;;5021586;28;46417;-78
2023/12/29 00:11:20;;;;;;;3.60;2.20;;;7.10;25.70;;;;;;5035912;28;46497;-77
2023/12/29 00:13:46;;;;;;;5.10;2.13;;;7.00;26.40;;;;;;5035895;28;46740;-77
2023/12/29 00:16:12;;;;;;;3.10;2.10;;;6.90;27.10;;;;;;5037433;28;46600;-77
2023/12/29 00:18:38;;;;;;;4.07;2.33;;;6.80;27.20;;;;;;5020732;28;46568;-77
2023/12/29 00:21:04;;;;;;;2.97;1.80;;;6.70;27.50;;;;;;5039349;28;46434;-79
2023/12/29 00:23:30;;;;;;;4.00;2.10;;;6.60;28.00;;;;;;5040752;28;46055;-78
2023/12/29 00:25:55;;;;;;;3.23;1.93;;;6.60;28.30;;;;;;5039001;28;46435;-79
2023/12/29 00:28:21;;;;;;;10.43;2.20;;;6.50;28.40;;;;;;5041328;28;47379;-80
2023/12/29 00:30:47;;;;;;;3.10;2.10;;;6.50;28.60;;;;;;5039434;28;46489;-79
2023/12/29 00:33:12;;;;;;;2.80;1.90;;;6.40;28.70;;;;;;5041035;28;46690;-80
2023/12/29 00:35:40;;;;;;;3.50;2.00;;;6.30;28.70;;;;;;5025980;28;48115;-78
2023/12/29 00:38:06;;;;;;;4.27;2.13;;;6.20;29.00;;;;;;5040883;28;45895;-78
2023/12/29 00:40:32;;;;;;;3.30;2.30;;;6.10;29.10;;;;;;5040751;28;46794;-78
2023/12/29 00:42:59;;;;;;;3.63;2.30;;;6.00;29.30;;;;;;5042766;28;46516;-79
2023/12/29 00:45:25;;;;;;;5.97;3.30;;;5.90;29.40;;;;;;5023642;28;49265;-79
2023/12/29 00:47:51;;;;;;;3.67;2.20;;;5.90;29.40;;;;;;5043466;28;46446;-77
2023/12/29 00:50:17;;;;;;;3.57;2.30;;;5.90;29.40;;;;;;5042072;28;46499;-79
2023/12/29 00:52:43;;;;;;;4.10;2.17;;;5.90;29.40;;;;;;5027967;28;45941;-79
2023/12/29 00:55:08;;;;;;;4.37;2.27;;;5.90;29.60;;;;;;5043801;28;46974;-79
2023/12/29 00:57:34;;;;;;;3.50;2.10;;;5.90;29.60;;;;;;5044376;28;46795;-78
2023/12/29 01:00:00;;;;;;;5.30;2.40;;;5.90;29.70;;;;;;5041929;28;46229;-79
2023/12/29 01:02:26;;;;;;;2.50;1.80;;;5.90;29.80;;;;;;5042609;28;46632;-77
2023/12/29 01:04:52;;;;;;;8.20;2.30;;;5.80;29.80;;;;;;5041218;28;46558;-78
2023/12/29 01:07:17;;;;;;;3.97;2.07;;;5.70;30.00;;;;;;5025167;28;46729;-78
2023/12/29 01:09:43;;;;;;;4.97;2.10;;;5.70;30.20;;;;;;5042417;28;46753;-78
2023/12/29 01:12:09;;;;;;;3.17;2.17;;;5.60;30.40;;;;;;5041706;28;47729;-77
2023/12/29 01:14:35;;;;;;;6.77;2.00;;;5.60;30.50;;;;;;5040623;28;47086;-78
2023/12/29 01:17:00;;;;;;;4.47;2.30;;;5.60;30.60;;;;;;5042345;28;46592;-78
2023/12/29 01:19:26;;;;;;;3.53;2.13;;;5.60;30.60;;;;;;5041833;28;46181;-78
2023/12/29 01:21:51;;;;;;;3.37;2.70;;;5.60;30.70;;;;;;5023351;28;46472;-77
2023/12/29 01:24:17;;;;;;;5.10;2.60;;;5.70;31.10;;;;;;5040570;28;49557;-79
2023/12/29 01:26:42;;;;;;;4.70;2.83;;;5.70;31.00;;;;;;5042709;28;46483;-78
2023/12/29 01:29:08;;;;;;;4.53;2.30;;;5.70;30.80;;;;;;5022707;28;46400;-78
2023/12/29 01:31:33;;;;;;;5.23;2.37;;;5.80;30.80;;;;;;5024385;28;46478;-78
2023/12/29 01:33:59;;;;;;;3.53;2.30;;;5.90;30.80;;;;;;5041609;28;46019;-78
2023/12/29 01:36:25;;;;;;;4.30;2.67;;;5.90;30.30;;;;;;5042542;28;46575;-78
2023/12/29 01:38:50;;;;;;;4.17;2.73;;;6.00;30.10;;;;;;5042453;28;46674;-78
2023/12/29 01:41:19;;;;;;;5.03;2.63;;;6.00;30.10;;;;;;5039746;28;46592;-78
2023/12/29 01:44:21;;;;;;;4.03;2.63;;;5.90;30.40;;;;;;5023484;28;48105;-80
2023/12/29 01:46:49;;;;;;;8.93;2.30;;;5.80;30.90;;;;;;5038240;28;46974;-78
2023/12/29 01:49:20;;;;;;;4.13;2.80;;;5.70;31.00;;;;;;5041345;28;46513;-80
2023/12/29 01:51:50;;;;;;;3.47;2.20;;;5.70;31.20;;;;;;5025297;28;45947;-79
2023/12/29 01:54:17;;;;;;;5.17;2.50;;;5.70;31.60;;;;;;5039814;28;47152;-79
2023/12/29 01:56:43;;;;;;;6.00;2.50;;;5.60;31.70;;;;;;5041885;28;46763;-79
2023/12/29 01:59:08;;;;;;;4.20;2.43;;;5.60;31.90;;;;;;5042480;28;46202;-79
2023/12/29 02:01:35;;;;;;;3.70;2.40;;;5.50;31.70;;;;;;5044710;28;46466;-79
2023/12/29 02:04:01;;;;;;;3.87;2.63;;;5.50;31.90;;;;;;5023004;28;49154;-79
2023/12/29 02:06:27;;;;;;;3.30;2.30;;;5.40;31.60;;;;;;5043282;28;46562;-77
2023/12/29 02:08:53;;;;;;;4.03;2.60;;;5.40;31.60;;;;;;5045943;28;45842;-78
2023/12/29 02:11:18;;;;;;;5.20;3.10;;;5.40;31.60;;;;;;5042676;28;46611;-79
2023/12/29 02:13:44;;;;;;;4.73;2.90;;;5.50;31.40;;;;;;5044502;28;51703;-79
2023/12/29 02:16:23;;;;;;;2.93;2.10;;;5.50;31.10;;;;;;5041929;28;46499;-80
2023/12/29 02:18:50;;;;;;;3.73;2.53;;;5.60;30.90;;;;;;5044610;28;46891;-79
2023/12/29 02:21:15;;;;;;;3.77;2.80;;;5.70;30.50;;;;;;5044271;28;48034;-79
2023/12/29 02:23:41;;;;;;;3.70;2.40;;;5.90;30.50;;;;;;5044311;28;47287;-78
2023/12/29 02:26:11;;;;;;;5.03;2.80;;;6.00;30.10;;;;;;5043296;28;46406;-79
2023/12/29 02:28:44;;;;;;;4.67;2.90;;;6.20;29.90;;;;;;5024737;28;46519;-79
2023/12/29 02:31:22;;;;;;;4.70;2.40;;;6.30;29.80;;;;;;5043129;28;46204;-80
2023/12/29 02:33:48;;;;;;;5.73;3.17;;;6.30;29.70;;;;;;5024011;28;47825;-80
2023/12/29 02:36:16;;;;;;;5.00;2.53;;;6.30;30.00;;;;;;5041821;28;46454;-79
2023/12/29 02:38:42;;;;;;;4.20;2.60;;;6.20;30.10;;;;;;5043835;28;46449;-78
2023/12/29 02:41:08;;;;;;;3.80;2.67;;;6.20;30.10;;;;;;5042887;28;46692;-78
2023/12/29 02:43:33;;;;;;;5.00;2.13;;;6.20;30.40;;;;;;5026575;28;47147;-79
2023/12/29 02:45:59;;;;;;;3.43;2.37;;;6.10;30.50;;;;;;5043600;28;46384;-77
2023/12/29 02:48:25;;;;;;;4.20;2.73;;;6.00;30.90;;;;;;5028111;28;46461;-78
2023/12/29 02:50:50;;;;;;;4.90;2.60;;;6.00;30.90;;;;;;5040010;28;46483;-78
2023/12/29 02:53:16;;;;;;;2.90;2.20;;;6.00;30.80;;;;;;5040075;28;46329;-79
2023/12/29 02:55:41;;;;;;;4.17;2.33;;;6.00;30.90;;;;;;5041254;28;46963;-77
2023/12/29 02:58:08;;;;;;;4.00;2.57;;;5.90;30.90;;;;;;5038585;28;46465;-77
2023/12/29 03:00:33;;;;;;;3.50;2.20;;;5.90;31.00;;;;;;5038938;28;46431;-77
2023/12/29 03:02:59;;;;;;;4.77;2.77;;;5.80;31.10;;;;;;5039242;28;46818;-78
2023/12/29 03:05:24;;;;;;;5.30;2.70;;;5.80;31.10;;;;;;5022369;28;46861;-78
2023/12/29 03:07:50;;;;;;;4.60;2.00;;;5.70;31.30;;;;;;5023620;28;46439;-78
2023/12/29 03:10:15;;;;;;;4.20;2.50;;;5.70;31.30;;;;;;5039900;28;46368;-78
2023/12/29 03:12:41;;;;;;;3.53;2.37;;;5.60;31.30;;;;;;5041051;28;46586;-78
2023/12/29 03:15:07;;;;;;;5.10;2.53;;;5.50;31.30;;;;;;5022468;28;46734;-78
2023/12/29 03:17:32;;;;;;;4.63;2.30;;;5.50;31.40;;;;;;5041372;28;46103;-76
2023/12/29 03:19:58;;;;;;;4.50;2.23;;;5.50;31.20;;;;;;5038167;28;45842;-78
2023/12/29 03:22:24;;;;;;;7.80;2.63;;;5.60;30.80;;;;;;5037857;28;46693;-78
2023/12/29 03:24:49;;;;;;;8.13;2.30;;;5.60;30.60;;;;;;5041081;28;46399;-79
2023/12/29 03:27:15;;;;;;;3.27;2.27;;;5.60;30.30;;;;;;5039318;28;46504;-79
2023/12/29 03:29:40;;;;;;;3.83;2.27;;;5.80;30.20;;;;;;5023174;28;46823;-78
2023/12/29 03:32:07;;;;;;;4.13;2.30;;;5.70;29.90;;;;;;5038257;28;47163;-78
2023/12/29 03:34:33;;;;;;;6.10;3.33;;;5.70;29.60;;;;;;5040591;28;46514;-79
2023/12/29 03:36:58;;;;;;;3.70;2.33;;;5.80;29.50;;;;;;5023632;28;46483;-77
2023/12/29 03:39:24;;;;;;;3.60;2.40;;;5.90;29.20;;;;;;5042197;28;46514;-79
2023/12/29 03:41:49;;;;;;;3.50;2.30;;;5.90;29.00;;;;;;5038804;28;46344;-78
2023/12/29 03:44:15;;;;;;;3.00;2.10;;;6.00;28.80;;;;;;5039545;28;46353;-78
2023/12/29 03:46:41;;;;;;;7.17;2.17;;;6.20;28.60;;;;;;5041473;28;46534;-78
2023/12/29 03:49:06;;;;;;;3.93;2.30;;;6.40;28.40;;;;;;5038178;28;46699;-77
2023/12/29 03:51:32;;;;;;;5.17;2.30;;;6.60;28.00;;;;;;5038631;28;46385;-78
2023/12/29 03:53:58;;;;;;;4.03;2.20;;;6.80;27.80;;;;;;5039455;28;46519;-78
2023/12/29 03:56:24;;;;;;;5.40;2.87;;;6.90;27.50;;;;;;5020383;28;46714;-78
2023/12/29 03:58:49;;;;;;;4.80;2.30;;;7.00;27.40;;;;;;5040609;28;46699;-78
2023/12/29 04:01:17;;;;;;;5.70;2.70;;;7.10;27.20;;;;;;5039725;28;47165;-79
2023/12/29 04:03:43;;;;;;;5.17;2.40;;;7.20;27.00;;;;;;5022630;28;46702;-79
2023/12/29 04:06:09;;;;;;;3.47;2.07;;;7.30;26.90;;;;;;5021225;28;46396;-78
2023/12/29 04:08:36;;;;;;;3.97;2.27;;;7.40;26.70;;;;;;5039192;28;46855;-78
2023/12/29 04:11:03;;;;;;;2.60;1.80;;;7.50;26.40;;;;;;5037664;28;46740;-78
2023/12/29 04:13:29;;;;;;;3.47;2.17;;;7.50;27.30;;;;;;5036328;28;46483;-78
2023/12/29 04:15:55;;;;;;;3.50;2.07;;;7.50;26.40;;;;;;5037829;28;46736;-78
2023/12/29 04:18:22;;;;;;;4.53;2.40;;;7.60;26.40;;;;;;5036528;28;46507;-77
2023/12/29 04:20:48;;;;;;;5.67;2.20;;;7.60;26.10;;;;;;5019719;28;48209;-79
2023/12/29 04:23:14;;;;;;;4.90;2.00;;;7.70;26.00;;;;;;5039459;28;46636;-79
2023/12/29 04:25:39;;;;;;;5.67;2.17;;;7.80;25.90;;;;;;5041408;28;46516;-80
2023/12/29 04:28:06;;;;;;;3.43;1.93;;;7.80;25.60;;;;;;5042084;28;46532;-78
2023/12/29 04:30:32;;;;;;;3.10;2.03;;;7.80;25.40;;;;;;5041431;28;46578;-78
2023/12/29 04:32:57;;;;;;;5.50;2.13;;;7.90;25.50;;;;;;5044198;28;45918;-80
2023/12/29 04:35:23;;;;;;;3.77;2.23;;;8.00;25.50;;;;;;5026521;28;46227;-80
2023/12/29 04:37:49;;;;;;;5.63;2.37;;;8.00;25.50;;;;;;5045560;28;46824;-79
2023/12/29 04:40:15;;;;;;;4.50;2.17;;;8.10;25.60;;;;;;5042877;28;46974;-80
2023/12/29 04:42:41;;;;;;;5.40;2.20;;;8.10;25.60;;;;;;5037669;28;46519;-78
2023/12/29 04:45:07;;;;;;;4.47;2.17;;;8.10;25.60;;;;;;5037886;28;46623;-78
2023/12/29 04:47:32;;;;;;;3.30;1.63;;;8.10;25.60;;;;;;5036875;28;46500;-79
2023/12/29 04:49:58;;;;;;;4.83;2.17;;;8.20;25.70;;;;;;5037931;28;47322;-78
2023/12/29 04:52:24;;;;;;;5.30;3.30;;;8.10;25.60;;;;;;5037136;28;46523;-77
2023/12/29 04:54:49;;;;;;;4.20;2.10;;;8.00;25.60;;;;;;5037719;28;46393;-78
2023/12/29 04:57:15;;;;;;;4.37;2.20;;;7.90;25.50;;;;;;5038088;28;45967;-77
2023/12/29 04:59:41;;;;;;;4.40;2.33;;;7.80;25.60;;;;;;5039166;28;46415;-77
2023/12/29 05:02:06;;;;;;;4.20;2.07;;;7.80;25.40;;;;;;5040075;28;46694;-78
2023/12/29 05:04:32;;;;;;;3.97;2.10;;;7.90;25.50;;;;;;5039874;28;46419;-78
2023/12/29 05:06:57;;;;;;;3.17;1.97;;;8.00;25.50;;;;;;5038007;28;46578;-78
2023/12/29 05:09:23;;;;;;;4.60;2.40;;;8.20;25.70;;;;;;5039924;28;47411;-78
2023/12/29 05:11:49;;;;;;;4.13;2.20;;;8.20;25.70;;;;;;5042798;28;46488;-79
2023/12/29 05:14:14;;;;;;;4.00;2.37;;;8.30;25.70;;;;;;5041479;28;46389;-78
2023/12/29 05:16:41;;;;;;;3.70;2.03;;;8.40;25.50;;;;;;5041611;28;46427;-78
2023/12/29 05:19:07;;;;;;;4.30;2.17;;;8.40;25.30;;;;;;5037938;28;46445;-80
2023/12/29 05:21:32;;;;;;;3.70;2.27;;;8.50;25.10;;;;;;5039096;28;46383;-79
2023/12/29 05:23:59;;;;;;;4.07;1.97;;;8.60;24.80;;;;;;5022647;28;46611;-80
2023/12/29 05:26:24;;;;;;;5.40;2.53;;;8.70;24.70;;;;;;5035347;28;46735;-80
2023/12/29 05:28:50;;;;;;;2.90;2.10;;;8.70;24.50;;;;;;5020595;28;48264;-79
2023/12/29 05:31:16;;;;;;;6.13;2.10;;;8.80;24.40;;;;;;5036732;28;46412;-79
2023/12/29 05:33:42;;;;;;;3.07;1.87;;;8.80;24.30;;;;;;5021292;28;46413;-78
2023/12/29 05:36:09;;;;;;;7.20;2.30;;;8.90;24.20;;;;;;5020120;28;46708;-81
2023/12/29 05:38:35;;;;;;;3.03;2.00;;;8.90;24.10;;;;;;5035858;28;46475;-78
2023/12/29 05:41:04;;;;;;;5.90;2.50;;;8.90;23.90;;;;;;5035724;28;46990;-80
2023/12/29 05:43:31;;;;;;;4.50;2.40;;;8.90;23.90;;;;;;5034695;28;46843;-79
2023/12/29 05:45:56;;;;;;;6.50;2.23;;;9.00;23.90;;;;;;5022234;28;46846;-81
2023/12/29 05:48:22;;;;;;;3.67;2.10;;;9.00;23.70;;;;;;5041063;28;47065;-79
2023/12/29 05:50:47;;;;;;;3.27;2.00;;;9.10;23.70;;;;;;5040119;28;46454;-79
2023/12/29 05:53:15;;;;;;;3.90;2.60;;;9.10;23.50;;;;;;5021278;28;46370;-78
2023/12/29 05:55:40;;;;;;;5.93;2.10;;;9.20;23.50;;;;;;5041529;28;46631;-80
2023/12/29 05:58:06;;;;;;;3.97;2.03;;;9.10;23.30;;;;;;5022523;28;48283;-79
2023/12/29 06:00:32;;;;;;;3.53;2.00;;;9.10;23.30;;;;;;5042241;28;46739;-80
2023/12/29 06:02:57;;;;;;;8.70;2.70;;;9.30;23.30;;;;;;5022797;28;46572;-81
2023/12/29 06:05:23;;;;;;;3.83;2.13;;;9.20;23.00;;;;;;5038989;28;46471;-79
2023/12/29 06:07:48;;;;;;;3.60;2.03;;;9.30;23.00;;;;;;5020956;28;47232;-80
2023/12/29 06:10:14;;;;;;;5.10;2.13;;;9.30;22.80;;;;;;5041206;28;47086;-78
2023/12/29 06:12:40;;;;;;;3.47;1.80;;;9.30;22.70;;;;;;5040303;28;46495;-79
2023/12/29 06:15:06;;;;;;;4.17;2.90;;;9.40;22.70;;;;;;5025814;28;46835;-80
2023/12/29 06:17:32;;;;;;;6.00;2.20;;;9.40;22.70;;;;;;5041752;28;46627;-78
2023/12/29 06:19:57;;;;;;;3.73;2.00;;;9.40;22.50;;;;;;5042446;28;45861;-78
2023/12/29 06:22:23;;;;;;;3.67;2.03;;;9.40;22.60;;;;;;5042771;28;46424;-81
2023/12/29 06:24:49;;;;;;;3.80;2.10;;;9.40;23.50;;;;;;5043482;28;46439;-81
2023/12/29 06:27:16;;;;;;;6.40;2.03;;;9.40;22.50;;;;;;5042525;28;47274;-77
2023/12/29 06:29:42;;;;;;;4.80;2.20;;;9.40;22.50;;;;;;5043029;28;46717;-79
2023/12/29 06:32:08;;;;;;;3.10;2.07;;;9.40;22.50;;;;;;5026653;28;47063;-79
2023/12/29 06:34:34;;;;;;;4.60;2.33;;;9.40;22.50;;;;;;5039724;28;47045;-81
2023/12/29 06:36:59;;;;;;;2.70;1.60;;;9.50;22.60;;;;;;5039257;28;46505;-81
2023/12/29 06:39:26;;;;;;;3.90;1.90;;;9.50;22.60;;;;;;5038396;28;46499;-80
2023/12/29 06:41:51;;;;;;;5.27;2.60;;;9.50;22.60;;;;;;5040670;28;46466;-80
2023/12/29 06:44:17;;;;;;;4.00;2.03;;;9.50;22.60;;;;;;5032890;28;47867;-79
2023/12/29 06:46:42;;;;;;;4.63;2.10;;;9.50;22.60;;;;;;5039121;28;46247;-79
2023/12/29 06:49:09;;;;;;;3.97;2.03;;;9.70;22.70;;;;;;5041220;28;46411;-80
2023/12/29 06:51:35;;;;;;;3.10;1.90;;;9.70;22.90;;;;;;5020002;28;46433;-79
2023/12/29 06:54:01;;;;;;;3.80;1.97;;;9.70;22.70;;;;;;5021840;28;46831;-79
2023/12/29 06:56:27;;;;;;;3.70;1.87;;;9.70;22.80;;;;;;5037991;28;46498;-79
2023/12/29 06:58:52;;;;;;;4.17;1.93;;;9.60;22.90;;;;;;5039972;28;46536;-79
2023/12/29 07:01:18;;;;;;;4.30;2.30;;;9.60;24.10;;;;;;5019771;28;46714;-78
2023/12/29 07:03:44;;;;;;;4.60;2.60;;;9.50;23.60;;;;;;5038473;28;46372;-80
2023/12/29 07:06:10;;;;;;;3.30;2.10;;;9.40;24.00;;;;;;5037914;28;47024;-80
2023/12/29 07:08:36;;;;;;;9.73;2.20;;;9.50;24.20;;;;;;5036474;28;46772;-80
2023/12/29 07:11:01;;;;;;;3.00;1.80;;;9.40;24.10;;;;;;5040694;28;46828;-80
2023/12/29 07:13:27;;;;;;;4.93;2.80;;;9.40;24.10;;;;;;5003746;28;46604;-79
2023/12/29 07:15:54;;;;;;;3.70;2.27;;;9.60;24.10;;;;;;5038533;28;46636;-79
2023/12/29 07:18:19;;;;;;;6.60;2.57;;;9.50;24.00;;;;;;5021401;28;46768;-78
2023/12/29 07:20:45;;;;;;;4.00;2.13;;;9.60;24.20;;;;;;5037833;28;46486;-80
2023/12/29 07:23:10;;;;;;;3.50;2.07;;;9.60;24.10;;;;;;5039619;28;46463;-78
2023/12/29 07:25:36;;;;;;;6.40;3.53;;;9.60;24.20;;;;;;5038126;28;47019;-78
2023/12/29 07:28:01;;;;;;;3.80;2.40;;;9.70;24.00;;;;;;5040633;28;46411;-80
2023/12/29 07:30:27;;;;;;;3.20;2.17;;;9.70;24.10;;;;;;5019465;28;46835;-80
2023/12/29 07:32:53;;;;;;;2.70;1.83;;;9.80;24.20;;;;;;5036642;28;47944;-79
2023/12/29 07:35:19;;;;;;;2.80;1.80;;;9.70;24.20;;;;;;5039381;28;46548;-79
2023/12/29 07:37:45;;;;;;;4.17;2.10;;;9.60;24.30;;;;;;5022646;28;46489;-81
2023/12/29 07:40:12;;;;;;;3.53;2.13;;;9.50;24.60;;;;;;5039491;28;46368;-80
2023/12/29 07:42:39;;;;;;;2.50;1.80;;;9.30;25.10;;;;;;5036360;28;46438;-81
2023/12/29 07:45:06;;;;;;;4.40;1.90;;;9.20;25.50;;;;;;5021719;28;49363;-80
2023/12/29 07:47:32;;;;;;;3.03;1.93;;;9.10;25.90;;;;;;5040427;28;46380;-80
2023/12/29 07:49:57;;;;;;;4.17;1.97;;;9.00;26.20;;;;;;5044259;28;46553;-82
2023/12/29 07:52:23;;;;;;;6.10;2.40;;;9.00;26.20;;;;;;5040869;28;46570;-80
2023/12/29 07:54:49;;;;;;;4.47;2.27;;;8.80;26.10;;;;;;5021896;28;48125;-80
2023/12/29 07:57:15;;;;;;;4.33;2.33;;;8.80;26.10;;;;;;5037372;28;46924;-82
2023/12/29 07:59:40;;;;;;;4.83;2.30;;;8.80;26.10;;;;;;5020504;28;46770;-79
2023/12/29 08:02:06;;;;;;;3.07;1.93;;;8.80;26.10;;;;;;5040605;28;46337;-81
2023/12/29 08:04:32;;;;;;;7.40;2.40;;;8.80;26.10;;;;;;5020205;28;48341;-81
2023/12/29 08:06:58;;;;;;;5.43;2.13;;;8.80;26.10;;;;;;5040874;28;46556;-80
2023/12/29 08:09:23;;;;;;;4.60;2.20;;;8.80;26.10;;;;;;5041605;28;46443;-81
2023/12/29 08:11:49;;;;;;;5.87;3.43;;;8.80;26.10;;;;;;5040694;28;46367;-81
2023/12/29 08:14:15;;;;;;;3.90;2.40;;;8.80;26.10;;;;;;5037611;28;47822;-81
2023/12/29 08:16:41;;;;;;;3.83;2.40;;;8.80;26.10;;;;;;5042777;28;46471;-80
2023/12/29 08:19:07;;;;;;;3.87;2.27;;;8.80;26.10;;;;;;5041717;28;46443;-82
2023/12/29 08:21:33;;;;;;;5.83;2.07;;;9.00;26.20;;;;;;5043517;28;46499;-80
2023/12/29 08:23:59;;;;;;;3.90;2.13;;;9.30;26.30;;;;;;5045234;28;46741;-83
2023/12/29 08:26:25;;;;;;;3.03;1.90;;;9.50;25.40;;;;;;5039899;28;46463;-79
2023/12/29 08:28:51;;;;;;;5.17;2.40;;;9.80;25.00;;;;;;5037959;28;46805;-80
2023/12/29 08:31:18;;;;;;;6.07;2.43;;;9.90;24.50;;;;;;5034729;28;46475;-81
2023/12/29 08:33:44;;;;;;;3.43;1.97;;;10.10;23.50;;;;;;5019511;28;48363;-81
2023/12/29 08:36:11;;;;;;;3.53;1.90;;;10.10;23.60;;;;;;5036495;28;45933;-81
2023/12/29 08:38:37;;;;;;;3.43;2.03;;;10.00;23.80;;;;;;5019497;28;46104;-81
2023/12/29 08:41:03;;;;;;;6.30;2.00;;;10.00;24.30;;;;;;5038090;28;46555;-81
2023/12/29 08:43:28;;;;;;;4.00;2.33;;;9.90;24.90;;;;;;5035276;28;47702;-80
2023/12/29 08:45:54;;;;;;;3.93;2.03;;;9.90;25.10;;;;;;5037465;28;46995;-81
2023/12/29 08:48:19;;;;;;;4.23;2.27;;;9.80;25.30;;;;;;5036084;28;46729;-81
2023/12/29 08:50:45;;;;;;;5.90;2.53;;;10.00;24.40;;;;;;5035917;28;46752;-80
2023/12/29 08:53:11;;;;;;;4.43;2.03;;;10.20;24.10;;;;;;5036916;28;46761;-82
2023/12/29 08:55:36;;;;;;;6.43;2.40;;;10.40;23.60;;;;;;5035386;28;46450;-79
2023/12/29 08:58:02;;;;;;;4.90;2.27;;;10.40;23.50;;;;;;5019522;28;46464;-79
2023/12/29 09:00:30;;;;;;;4.40;2.07;;;10.60;23.30;;;;;;5037639;28;46236;-78
2023/12/29 09:02:56;;;;;;;3.53;1.77;;;10.80;23.30;;;;;;5036944;28;46749;-79
2023/12/29 09:05:21;;;;;;;3.83;2.30;;;11.00;22.90;;;;;;5036587;28;46571;-78
2023/12/29 09:07:47;;;;;;;3.50;1.93;;;11.10;22.70;;;;;;5034303;28;46484;-80
2023/12/29 09:10:13;;;;;;;3.60;1.73;;;11.30;22.60;;;;;;5036444;28;47440;-77
2023/12/29 09:12:39;;;;;;;2.83;2.10;;;11.30;22.50;;;;;;5017964;28;49021;-78
2023/12/29 09:15:05;;;;;;;4.80;1.80;;;11.30;22.50;;;;;;5018352;28;46679;-80
2023/12/29 09:17:31;;;;;;;3.97;2.00;;;11.30;22.60;;;;;;5034182;28;46534;-79
2023/12/29 09:19:57;;;;;;;3.40;2.07;;;11.30;22.70;;;;;;5039689;28;46734;-79
2023/12/29 09:22:22;;;;;;;4.10;2.20;;;11.30;22.60;;;;;;5038314;28;47482;-78
2023/12/29 09:24:48;;;;;;;4.07;2.37;;;11.40;22.50;;;;;;5023934;28;46462;-80
2023/12/29 09:27:13;;;;;;;3.40;1.80;;;11.50;22.40;;;;;;5040673;28;46271;-79
2023/12/29 09:29:40;;;;;;;3.50;1.93;;;11.50;22.30;;;;;;5039822;28;46459;-79
2023/12/29 09:32:06;;;;;;;10.13;5.30;;;11.40;22.20;;;;;;5038542;28;46719;-80
2023/12/29 09:34:32;;;;;;;20.23;11.07;;;11.40;22.40;;;;;;5038650;28;46627;-79
2023/12/29 09:36:57;;;;;;;12.53;7.13;;;11.40;22.50;;;;;;5043785;28;46582;-79
2023/12/29 09:39:23;;;;;;;4.30;2.57;;;11.50;22.40;;;;;;5039043;28;47121;-80
2023/12/29 09:41:52;;;;;;;3.23;2.20;;;11.60;23.40;;;;;;5040415;28;46794;-79
2023/12/29 09:44:21;;;;;;;4.37;2.13;;;11.80;22.40;;;;;;5043475;28;46586;-79
2023/12/29 09:46:51;;;;;;;3.00;1.87;;;11.80;22.30;;;;;;5057432;28;46115;-80
2023/12/29 09:49:19;;;;;;;4.27;1.93;;;11.80;22.10;;;;;;5052506;28;46460;-79
2023/12/29 09:51:45;;;;;;;3.33;2.27;;;11.90;22.00;;;;;;5040018;28;47084;-80
2023/12/29 09:54:11;;;;;;;8.57;2.37;;;11.90;22.00;;;;;;5037460;28;46895;-80
2023/12/29 09:56:37;;;;;;;4.27;2.20;;;12.00;22.10;;;;;;5039948;28;46408;-78
2023/12/29 09:59:03;;;;;;;5.00;2.33;;;12.00;22.10;;;;;;5040141;28;46570;-78
2023/12/29 10:01:30;;;;;;;4.10;2.10;;;11.90;22.20;;;;;;5039517;28;46419;-78
2023/12/29 10:03:59;;;;;;;4.20;2.27;;;11.80;22.60;;;;;;5041793;28;46720;-77
2023/12/29 10:06:25;;;;;;;10.90;5.40;;;11.60;22.60;;;;;;5015624;28;47225;-80
2023/12/29 10:08:52;;;;;;;4.10;2.07;;;11.60;22.90;;;;;;5004012;28;46486;-78
2023/12/29 10:11:20;;;;;;;4.87;2.70;;;11.50;23.00;;;;;;5034240;28;47074;-78
2023/12/29 10:13:50;;;;;;;4.13;1.97;;;11.60;23.10;;;;;;5015498;28;46671;-80
2023/12/29 10:16:35;;;;;;;4.50;1.93;;;11.60;23.00;;;;;;5021579;28;45789;-78
2023/12/29 10:19:23;;;;;;;3.00;1.83;;;11.70;22.90;;;;;;5036487;28;46579;-79
2023/12/29 10:22:03;;;;;;;4.20;1.60;;;11.80;22.90;;;;;;5026052;28;47150;-77
2023/12/29 10:24:29;;;;;;;4.50;1.80;;;11.70;22.90;;;;;;5037721;28;46539;-76
2023/12/29 10:26:55;;;;;;;3.53;1.80;;;11.70;23.10;;;;;;5037276;28;47118;-79
2023/12/29 10:29:21;;;;;;;3.00;1.60;;;11.70;23.20;;;;;;5036938;28;45874;-78
2023/12/29 10:31:47;;;;;;;6.10;2.20;;;11.70;23.30;;;;;;5033918;28;46275;-80
2023/12/29 10:34:29;;;;;;;4.23;1.93;;;11.60;23.40;;;;;;5025390;28;46609;-77
2023/12/29 10:36:58;;;;;;;2.47;1.63;;;11.70;23.30;;;;;;5034889;28;46439;-79
2023/12/29 10:39:24;;;;;;;2.93;1.83;;;11.80;23.30;;;;;;5041451;28;46488;-80
2023/12/29 10:42:02;;;;;;;2.80;1.50;;;11.90;24.10;;;;;;5023165;28;47081;-79
2023/12/29 10:44:27;;;;;;;5.03;1.60;;;11.90;23.00;;;;;;5039969;28;46605;-78
2023/12/29 10:46:53;;;;;;;4.50;2.40;;;12.00;23.10;;;;;;5019939;28;45960;-79
2023/12/29 10:49:18;;;;;;;3.63;2.00;;;12.00;23.10;;;;;;5040216;28;46942;-81
2023/12/29 10:51:44;;;;;;;3.43;1.60;;;12.00;23.10;;;;;;5042237;28;45979;-79
2023/12/29 10:54:23;;;;;;;4.80;1.87;;;11.90;23.10;;;;;;5043881;28;46668;-77
2023/12/29 10:57:02;;;;;;;4.47;2.13;;;11.90;23.30;;;;;;5033947;28;46759;-79
2023/12/29 10:59:28;;;;;;;4.47;2.20;;;11.90;23.20;;;;;;5036462;28;46767;-77
2023/12/29 11:01:54;;;;;;;4.90;2.60;;;11.90;23.00;;;;;;5035958;28;46516;-80
2023/12/29 11:04:22;;;;;;;2.67;1.47;;;12.00;22.90;;;;;;5021383;28;46520;-79
2023/12/29 11:06:50;;;;;;;4.53;2.30;;;12.10;22.80;;;;;;5037125;28;47634;-79
2023/12/29 11:09:36;;;;;;;3.20;1.90;;;12.10;22.80;;;;;;5039945;28;46609;-79
2023/12/29 11:12:03;;;;;;;4.60;2.10;;;12.10;22.90;;;;;;5037366;28;47663;-78
2023/12/29 11:14:30;;;;;;;2.90;1.60;;;12.00;22.90;;;;;;5037320;28;46431;-77
2023/12/29 11:16:56;;;;;;;4.40;1.80;;;12.00;22.90;;;;;;5037954;28;46963;-77
2023/12/29 11:19:22;;;;;;;4.23;2.00;;;11.90;23.00;;;;;;5020984;28;46631;-81
2023/12/29 11:21:53;;;;;;;7.77;1.77;;;11.90;23.10;;;;;;5037875;28;47820;-83
2023/12/29 11:24:19;;;;;;;4.07;2.40;;;11.80;23.20;;;;;;5020203;28;46434;-80
2023/12/29 11:26:44;;;;;;;3.37;2.10;;;11.80;23.30;;;;;;5041423;28;46428;-81
2023/12/29 11:29:12;;;;;;;3.97;1.83;;;11.90;23.30;;;;;;5039595;28;46451;-80
2023/12/29 11:31:39;;;;;;;3.13;2.10;;;11.90;23.20;;;;;;5039261;28;46887;-80
2023/12/29 11:34:14;;;;;;;3.73;1.80;;;12.00;23.10;;;;;;5014011;28;46638;-79
2023/12/29 11:36:46;;;;;;;6.93;2.80;;;12.00;22.90;;;;;;5018319;28;46813;-80
2023/12/29 11:39:30;;;;;;;3.03;1.70;;;12.20;22.70;;;;;;5015828;28;47207;-78
2023/12/29 11:42:32;;;;;;;3.03;1.90;;;12.20;22.60;;;;;;5036256;28;46500;-78
2023/12/29 11:45:18;;;;;;;4.10;2.10;;;12.10;22.60;;;;;;4990530;28;46977;-78
2023/12/29 11:47:44;;;;;;;3.73;1.90;;;12.00;22.80;;;;;;5036783;28;46486;-78
2023/12/29 11:50:10;;;;;;;4.13;1.97;;;11.90;23.10;;;;;;5037482;28;46436;-81
2023/12/29 11:52:38;;;;;;;4.97;2.27;;;12.00;23.30;;;;;;5022772;28;48477;-81
2023/12/29 11:55:11;;;;;;;3.80;2.23;;;11.90;23.20;;;;;;5022255;28;46040;-80
2023/12/29 11:57:38;;;;;;;4.20;2.00;;;12.00;23.00;;;;;;5038329;28;46508;-77
2023/12/29 12:00:07;;;;;;;3.60;2.03;;;11.90;23.00;;;;;;5037835;28;46976;-78
2023/12/29 12:02:33;;;;;;;3.47;1.80;;;12.00;23.00;;;;;;5036898;28;47223;-78
2023/12/29 12:04:58;;;;;;;4.93;1.93;;;11.90;23.00;;;;;;5037180;28;46497;-80
2023/12/29 12:07:27;;;;;;;3.33;1.50;;;12.00;23.00;;;;;;5037587;28;46683;-77
2023/12/29 12:10:22;;;;;;;4.13;1.70;;;12.00;22.90;;;;;;5018960;28;45925;-76
2023/12/29 12:12:51;;;;;;;3.53;1.80;;;12.10;22.90;;;;;;5037158;28;46539;-80
2023/12/29 12:15:29;;;;;;;3.80;2.00;;;12.20;22.70;;;;;;5036802;28;46523;-78
2023/12/29 12:17:55;;;;;;;3.73;1.80;;;12.20;22.60;;;;;;5025403;28;47420;-79
2023/12/29 12:20:21;;;;;;;2.60;1.70;;;12.30;22.60;;;;;;5016114;28;46649;-78
2023/12/29 12:22:56;;;;;;;3.10;1.80;;;12.40;22.50;;;;;;5037715;28;48147;-77
2023/12/29 12:25:22;;;;;;;3.50;1.73;;;12.30;22.50;;;;;;5040488;28;46468;-77
2023/12/29 12:27:47;;;;;;;4.43;1.70;;;12.40;22.50;;;;;;5018768;28;47554;-75
2023/12/29 12:30:18;;;;;;;3.40;1.90;;;12.30;23.30;;;;;;5020968;28;46543;-78
2023/12/29 12:32:44;;;;;;;5.47;1.70;;;12.30;22.50;;;;;;5035991;28;48183;-79
2023/12/29 12:35:16;;;;;;;4.83;2.80;;;12.30;22.50;;;;;;5018965;28;46444;-82
2023/12/29 12:37:42;;;;;;;6.27;2.73;;;12.30;22.60;;;;;;5036109;28;46666;-77
2023/12/29 12:40:08;;;;;;;3.70;1.77;;;12.30;22.60;;;;;;5019506;28;46193;-79
2023/12/29 12:42:41;;;;;;;3.47;2.00;;;12.20;22.50;;;;;;5037202;28;46951;-80
2023/12/29 12:45:12;;;;;;;4.63;2.70;;;12.20;22.60;;;;;;5038817;28;46705;-81
2023/12/29 12:47:52;;;;;;;2.57;1.60;;;12.10;22.50;;;;;;5037658;28;46746;-80
2023/12/29 12:50:18;;;;;;;4.00;2.53;;;12.30;22.60;;;;;;5037811;28;46350;-80
2023/12/29 12:52:45;;;;;;;3.63;1.80;;;12.10;22.60;;;;;;5040342;28;46544;-79